sensor_id;sensor_type;location;lat;lon;timestamp;P1;durP1;ratioP1;P2;durP2;ratioP2
5638;SDS011;2841;44.526;11.360;2023-05-25T00:00:16;39.13;;;22.30;;
5638;SDS011;2841;44.526;11.360;2023-05-25T00:02:46;32.33;;;22.57;;
5638;SDS011;2841;44.526;11.360;2023-05-25T00:05:13;32.43;;;22.00;;
5638;SDS011;2841;44.526;11.360;2023-05-25T00:07:42;36.37;;;23.83;;
5638;SDS011;2841;44.526;11.360;2023-05-25T00:10:09;34.43;;;21.10;;
5638;SDS011;2841;44.526;11.360;2023-05-25T00:12:37;37.60;;;21.30;;
5638;SDS011;2841;44.526;11.360;2023-05-25T00:15:05;32.30;;;22.07;;
5638;SDS011;2841;44.526;11.360;2023-05-25T00:17:32;29.47;;;22.90;;
5638;SDS011;2841;44.526;11.360;2023-05-25T00:20:03;30.43;;;23.10;;
5638;SDS011;2841;44.526;11.360;2023-05-25T00:22:31;31.57;;;23.00;;
5638;SDS011;2841;44.526;11.360;2023-05-25T00:24:58;41.07;;;24.70;;
5638;SDS011;2841;44.526;11.360;2023-05-25T00:27:26;28.50;;;20.90;;
5638;SDS011;2841;44.526;11.360;2023-05-25T00:29:53;30.93;;;21.60;;
5638;SDS011;2841;44.526;11.360;2023-05-25T00:32:20;40.40;;;21.93;;
5638;SDS011;2841;44.526;11.360;2023-05-25T00:34:48;34.80;;;22.70;;
5638;SDS011;2841;44.526;11.360;2023-05-25T00:37:16;28.40;;;21.13;;
5638;SDS011;2841;44.526;11.360;2023-05-25T00:39:44;29.90;;;20.77;;
5638;SDS011;2841;44.526;11.360;2023-05-25T00:42:11;30.13;;;20.43;;
5638;SDS011;2841;44.526;11.360;2023-05-25T00:44:38;31.90;;;22.00;;
5638;SDS011;2841;44.526;11.360;2023-05-25T00:47:05;34.30;;;20.73;;
5638;SDS011;2841;44.526;11.360;2023-05-25T00:49:33;34.23;;;20.17;;
5638;SDS011;2841;44.526;11.360;2023-05-25T00:52:01;35.43;;;19.70;;
5638;SDS011;2841;44.526;11.360;2023-05-25T00:54:30;45.37;;;20.33;;
5638;SDS011;2841;44.526;11.360;2023-05-25T00:57:00;28.53;;;18.63;;
5638;SDS011;2841;44.526;11.360;2023-05-25T00:59:32;27.70;;;17.40;;
5638;SDS011;2841;44.526;11.360;2023-05-25T01:02:06;34.00;;;20.73;;
5638;SDS011;2841;44.526;11.360;2023-05-25T01:04:35;31.13;;;16.90;;
5638;SDS011;2841;44.526;11.360;2023-05-25T01:07:07;31.30;;;17.30;;
5638;SDS011;2841;44.526;11.360;2023-05-25T01:09:38;26.23;;;17.27;;
5638;SDS011;2841;44.526;11.360;2023-05-25T01:12:09;21.50;;;15.50;;
5638;SDS011;2841;44.526;11.360;2023-05-25T01:14:39;22.30;;;15.77;;
5638;SDS011;2841;44.526;11.360;2023-05-25T01:17:07;20.80;;;14.60;;
5638;SDS011;2841;44.526;11.360;2023-05-25T01:19:35;21.90;;;13.43;;
5638;SDS011;2841;44.526;11.360;2023-05-25T01:22:11;20.33;;;13.67;;
5638;SDS011;2841;44.526;11.360;2023-05-25T01:24:45;17.87;;;14.03;;
5638;SDS011;2841;44.526;11.360;2023-05-25T01:27:15;26.93;;;14.73;;
5638;SDS011;2841;44.526;11.360;2023-05-25T01:29:45;19.47;;;14.40;;
5638;SDS011;2841;44.526;11.360;2023-05-25T01:32:14;20.90;;;14.77;;
5638;SDS011;2841;44.526;11.360;2023-05-25T01:34:43;24.60;;;14.30;;
5638;SDS011;2841;44.526;11.360;2023-05-25T01:37:13;14.90;;;12.10;;
5638;SDS011;2841;44.526;11.360;2023-05-25T01:39:41;21.27;;;14.03;;
5638;SDS011;2841;44.526;11.360;2023-05-25T01:42:09;17.30;;;11.80;;
5638;SDS011;2841;44.526;11.360;2023-05-25T01:44:36;19.33;;;11.63;;
5638;SDS011;2841;44.526;11.360;2023-05-25T01:47:07;20.60;;;12.60;;
5638;SDS011;2841;44.526;11.360;2023-05-25T01:49:41;21.17;;;11.33;;
5638;SDS011;2841;44.526;11.360;2023-05-25T01:52:21;21.63;;;11.40;;
5638;SDS011;2841;44.526;11.360;2023-05-25T01:54:52;16.80;;;12.20;;
5638;SDS011;2841;44.526;11.360;2023-05-25T01:57:22;14.53;;;10.30;;
5638;SDS011;2841;44.526;11.360;2023-05-25T01:59:51;15.40;;;9.87;;
5638;SDS011;2841;44.526;11.360;2023-05-25T02:02:24;15.93;;;10.43;;
5638;SDS011;2841;44.526;11.360;2023-05-25T02:04:52;14.07;;;10.73;;
5638;SDS011;2841;44.526;11.360;2023-05-25T02:07:22;21.83;;;12.37;;
5638;SDS011;2841;44.526;11.360;2023-05-25T02:09:49;31.07;;;13.80;;
5638;SDS011;2841;44.526;11.360;2023-05-25T02:12:17;15.70;;;11.63;;
5638;SDS011;2841;44.526;11.360;2023-05-25T02:14:44;19.30;;;13.40;;
5638;SDS011;2841;44.526;11.360;2023-05-25T02:17:13;22.80;;;12.73;;
5638;SDS011;2841;44.526;11.360;2023-05-25T02:19:41;18.70;;;13.10;;
5638;SDS011;2841;44.526;11.360;2023-05-25T02:22:09;18.63;;;12.33;;
5638;SDS011;2841;44.526;11.360;2023-05-25T02:24:38;15.20;;;11.53;;
5638;SDS011;2841;44.526;11.360;2023-05-25T02:27:05;23.53;;;12.73;;
5638;SDS011;2841;44.526;11.360;2023-05-25T02:29:32;18.30;;;13.00;;
5638;SDS011;2841;44.526;11.360;2023-05-25T02:32:00;16.83;;;11.10;;
5638;SDS011;2841;44.526;11.360;2023-05-25T02:34:27;21.40;;;12.60;;
5638;SDS011;2841;44.526;11.360;2023-05-25T02:36:54;17.07;;;11.63;;
5638;SDS011;2841;44.526;11.360;2023-05-25T02:39:21;19.50;;;11.60;;
5638;SDS011;2841;44.526;11.360;2023-05-25T02:41:51;19.50;;;11.33;;
5638;SDS011;2841;44.526;11.360;2023-05-25T02:44:19;18.03;;;11.87;;
5638;SDS011;2841;44.526;11.360;2023-05-25T02:46:47;22.30;;;11.67;;
5638;SDS011;2841;44.526;11.360;2023-05-25T02:49:14;17.77;;;11.23;;
5638;SDS011;2841;44.526;11.360;2023-05-25T02:51:41;18.17;;;10.70;;
5638;SDS011;2841;44.526;11.360;2023-05-25T02:54:08;17.60;;;10.70;;
5638;SDS011;2841;44.526;11.360;2023-05-25T02:56:36;20.33;;;12.33;;
5638;SDS011;2841;44.526;11.360;2023-05-25T02:59:04;21.50;;;12.60;;
5638;SDS011;2841;44.526;11.360;2023-05-25T03:01:32;27.23;;;12.70;;
5638;SDS011;2841;44.526;11.360;2023-05-25T03:03:59;16.90;;;12.23;;
5638;SDS011;2841;44.526;11.360;2023-05-25T03:06:26;17.40;;;12.57;;
5638;SDS011;2841;44.526;11.360;2023-05-25T03:08:53;17.47;;;11.43;;
5638;SDS011;2841;44.526;11.360;2023-05-25T03:11:20;15.33;;;11.60;;
5638;SDS011;2841;44.526;11.360;2023-05-25T03:13:48;19.30;;;12.73;;
5638;SDS011;2841;44.526;11.360;2023-05-25T03:16:18;19.37;;;11.77;;
5638;SDS011;2841;44.526;11.360;2023-05-25T03:18:47;19.20;;;12.67;;
5638;SDS011;2841;44.526;11.360;2023-05-25T03:21:14;18.43;;;12.90;;
5638;SDS011;2841;44.526;11.360;2023-05-25T03:23:41;22.53;;;11.20;;
5638;SDS011;2841;44.526;11.360;2023-05-25T03:26:08;18.07;;;13.50;;
5638;SDS011;2841;44.526;11.360;2023-05-25T03:28:35;17.30;;;11.00;;
5638;SDS011;2841;44.526;11.360;2023-05-25T03:31:03;15.70;;;11.00;;
5638;SDS011;2841;44.526;11.360;2023-05-25T03:33:31;20.87;;;11.97;;
5638;SDS011;2841;44.526;11.360;2023-05-25T03:35:59;19.33;;;11.77;;
5638;SDS011;2841;44.526;11.360;2023-05-25T03:38:26;17.43;;;11.93;;
5638;SDS011;2841;44.526;11.360;2023-05-25T03:40:53;16.20;;;12.83;;
5638;SDS011;2841;44.526;11.360;2023-05-25T03:43:20;15.77;;;11.83;;
5638;SDS011;2841;44.526;11.360;2023-05-25T03:45:47;16.70;;;11.87;;
5638;SDS011;2841;44.526;11.360;2023-05-25T03:48:14;24.43;;;12.40;;
5638;SDS011;2841;44.526;11.360;2023-05-25T03:50:43;18.50;;;12.57;;
5638;SDS011;2841;44.526;11.360;2023-05-25T03:53:10;20.07;;;12.50;;
5638;SDS011;2841;44.526;11.360;2023-05-25T03:55:37;19.30;;;11.70;;
5638;SDS011;2841;44.526;11.360;2023-05-25T03:58:04;21.03;;;12.40;;
5638;SDS011;2841;44.526;11.360;2023-05-25T04:00:34;19.83;;;11.73;;
5638;SDS011;2841;44.526;11.360;2023-05-25T04:03:01;19.80;;;12.50;;
5638;SDS011;2841;44.526;11.360;2023-05-25T04:05:29;17.70;;;10.60;;
5638;SDS011;2841;44.526;11.360;2023-05-25T04:07:57;16.73;;;11.10;;
5638;SDS011;2841;44.526;11.360;2023-05-25T04:10:24;21.20;;;11.40;;
5638;SDS011;2841;44.526;11.360;2023-05-25T04:12:52;20.70;;;14.17;;
5638;SDS011;2841;44.526;11.360;2023-05-25T04:15:20;16.10;;;12.33;;
5638;SDS011;2841;44.526;11.360;2023-05-25T04:17:49;20.70;;;12.13;;
5638;SDS011;2841;44.526;11.360;2023-05-25T04:20:16;18.60;;;12.87;;
5638;SDS011;2841;44.526;11.360;2023-05-25T04:22:43;16.30;;;11.23;;
5638;SDS011;2841;44.526;11.360;2023-05-25T04:25:12;20.13;;;11.80;;
5638;SDS011;2841;44.526;11.360;2023-05-25T04:27:39;15.03;;;11.00;;
5638;SDS011;2841;44.526;11.360;2023-05-25T04:30:06;17.40;;;11.57;;
5638;SDS011;2841;44.526;11.360;2023-05-25T04:32:35;17.47;;;12.50;;
5638;SDS011;2841;44.526;11.360;2023-05-25T04:35:03;15.63;;;11.13;;
5638;SDS011;2841;44.526;11.360;2023-05-25T04:37:30;20.40;;;12.07;;
5638;SDS011;2841;44.526;11.360;2023-05-25T04:39:58;18.50;;;12.40;;
5638;SDS011;2841;44.526;11.360;2023-05-25T04:42:27;19.33;;;12.17;;
5638;SDS011;2841;44.526;11.360;2023-05-25T04:44:54;23.70;;;13.33;;
5638;SDS011;2841;44.526;11.360;2023-05-25T04:47:21;17.70;;;13.00;;
5638;SDS011;2841;44.526;11.360;2023-05-25T04:49:50;16.20;;;11.77;;
5638;SDS011;2841;44.526;11.360;2023-05-25T04:52:17;18.07;;;12.83;;
5638;SDS011;2841;44.526;11.360;2023-05-25T04:54:44;19.83;;;12.77;;
5638;SDS011;2841;44.526;11.360;2023-05-25T04:57:11;17.10;;;13.00;;
5638;SDS011;2841;44.526;11.360;2023-05-25T04:59:41;19.53;;;13.10;;
5638;SDS011;2841;44.526;11.360;2023-05-25T05:02:08;20.67;;;13.80;;
5638;SDS011;2841;44.526;11.360;2023-05-25T05:04:35;19.37;;;12.83;;
5638;SDS011;2841;44.526;11.360;2023-05-25T05:07:05;32.17;;;13.50;;
5638;SDS011;2841;44.526;11.360;2023-05-25T05:09:33;21.03;;;14.00;;
5638;SDS011;2841;44.526;11.360;2023-05-25T05:12:00;21.07;;;13.50;;
5638;SDS011;2841;44.526;11.360;2023-05-25T05:14:27;19.00;;;14.03;;
5638;SDS011;2841;44.526;11.360;2023-05-25T05:16:56;20.07;;;13.97;;
5638;SDS011;2841;44.526;11.360;2023-05-25T05:19:23;22.73;;;14.43;;
5638;SDS011;2841;44.526;11.360;2023-05-25T05:21:51;18.67;;;12.83;;
5638;SDS011;2841;44.526;11.360;2023-05-25T05:24:18;32.03;;;13.83;;
5638;SDS011;2841;44.526;11.360;2023-05-25T05:26:45;25.20;;;13.40;;
5638;SDS011;2841;44.526;11.360;2023-05-25T05:29:13;22.00;;;13.33;;
5638;SDS011;2841;44.526;11.360;2023-05-25T05:31:41;28.73;;;16.53;;
5638;SDS011;2841;44.526;11.360;2023-05-25T05:34:09;25.50;;;14.87;;
5638;SDS011;2841;44.526;11.360;2023-05-25T05:36:36;28.93;;;14.20;;
5638;SDS011;2841;44.526;11.360;2023-05-25T05:39:04;24.77;;;15.80;;
5638;SDS011;2841;44.526;11.360;2023-05-25T05:41:31;23.23;;;16.00;;
5638;SDS011;2841;44.526;11.360;2023-05-25T05:43:58;22.07;;;14.00;;
5638;SDS011;2841;44.526;11.360;2023-05-25T05:46:25;24.53;;;14.67;;
5638;SDS011;2841;44.526;11.360;2023-05-25T05:48:53;21.83;;;14.30;;
5638;SDS011;2841;44.526;11.360;2023-05-25T05:51:21;22.33;;;13.83;;
5638;SDS011;2841;44.526;11.360;2023-05-25T05:53:48;24.40;;;13.97;;
5638;SDS011;2841;44.526;11.360;2023-05-25T05:56:16;23.30;;;15.27;;
5638;SDS011;2841;44.526;11.360;2023-05-25T05:58:43;24.33;;;15.80;;
5638;SDS011;2841;44.526;11.360;2023-05-25T06:01:12;24.20;;;15.70;;
5638;SDS011;2841;44.526;11.360;2023-05-25T06:03:41;24.60;;;16.17;;
5638;SDS011;2841;44.526;11.360;2023-05-25T06:06:08;40.37;;;17.07;;
5638;SDS011;2841;44.526;11.360;2023-05-25T06:08:37;26.00;;;15.50;;
5638;SDS011;2841;44.526;11.360;2023-05-25T06:11:05;30.47;;;17.50;;
5638;SDS011;2841;44.526;11.360;2023-05-25T06:13:32;28.67;;;16.60;;
5638;SDS011;2841;44.526;11.360;2023-05-25T06:15:59;31.27;;;18.67;;
5638;SDS011;2841;44.526;11.360;2023-05-25T06:18:26;30.83;;;17.33;;
5638;SDS011;2841;44.526;11.360;2023-05-25T06:20:53;22.50;;;16.60;;
5638;SDS011;2841;44.526;11.360;2023-05-25T06:23:21;38.27;;;18.63;;
5638;SDS011;2841;44.526;11.360;2023-05-25T06:25:50;26.37;;;18.67;;
5638;SDS011;2841;44.526;11.360;2023-05-25T06:28:18;25.77;;;18.10;;
5638;SDS011;2841;44.526;11.360;2023-05-25T06:30:45;32.80;;;19.53;;
5638;SDS011;2841;44.526;11.360;2023-05-25T06:33:13;41.60;;;22.27;;
5638;SDS011;2841;44.526;11.360;2023-05-25T06:35:40;28.77;;;19.60;;
5638;SDS011;2841;44.526;11.360;2023-05-25T06:38:08;28.53;;;17.93;;
5638;SDS011;2841;44.526;11.360;2023-05-25T06:40:35;25.50;;;16.83;;
5638;SDS011;2841;44.526;11.360;2023-05-25T06:43:04;38.23;;;20.13;;
5638;SDS011;2841;44.526;11.360;2023-05-25T06:45:31;28.33;;;18.53;;
5638;SDS011;2841;44.526;11.360;2023-05-25T06:47:58;25.10;;;19.40;;
5638;SDS011;2841;44.526;11.360;2023-05-25T06:50:25;30.70;;;18.47;;
5638;SDS011;2841;44.526;11.360;2023-05-25T06:52:52;29.40;;;17.50;;
5638;SDS011;2841;44.526;11.360;2023-05-25T06:55:20;24.97;;;18.50;;
5638;SDS011;2841;44.526;11.360;2023-05-25T06:57:50;31.53;;;18.10;;
5638;SDS011;2841;44.526;11.360;2023-05-25T07:00:19;26.83;;;17.80;;
5638;SDS011;2841;44.526;11.360;2023-05-25T07:02:46;29.67;;;19.77;;
5638;SDS011;2841;44.526;11.360;2023-05-25T07:05:13;29.83;;;20.17;;
5638;SDS011;2841;44.526;11.360;2023-05-25T07:07:41;31.57;;;19.50;;
5638;SDS011;2841;44.526;11.360;2023-05-25T07:10:08;26.10;;;19.37;;
5638;SDS011;2841;44.526;11.360;2023-05-25T07:12:35;27.47;;;17.97;;
5638;SDS011;2841;44.526;11.360;2023-05-25T07:15:03;25.13;;;18.47;;
5638;SDS011;2841;44.526;11.360;2023-05-25T07:17:32;22.20;;;17.17;;
5638;SDS011;2841;44.526;11.360;2023-05-25T07:20:00;22.63;;;17.43;;
5638;SDS011;2841;44.526;11.360;2023-05-25T07:22:28;26.97;;;16.30;;
5638;SDS011;2841;44.526;11.360;2023-05-25T07:24:55;28.03;;;17.90;;
5638;SDS011;2841;44.526;11.360;2023-05-25T07:27:23;27.43;;;16.47;;
5638;SDS011;2841;44.526;11.360;2023-05-25T07:29:50;20.83;;;14.33;;
5638;SDS011;2841;44.526;11.360;2023-05-25T07:32:17;21.13;;;14.63;;
5638;SDS011;2841;44.526;11.360;2023-05-25T07:34:45;24.50;;;17.10;;
5638;SDS011;2841;44.526;11.360;2023-05-25T07:37:13;22.77;;;16.50;;
5638;SDS011;2841;44.526;11.360;2023-05-25T07:39:40;21.80;;;15.80;;
5638;SDS011;2841;44.526;11.360;2023-05-25T07:42:07;26.23;;;15.90;;
5638;SDS011;2841;44.526;11.360;2023-05-25T07:44:35;23.80;;;16.00;;
5638;SDS011;2841;44.526;11.360;2023-05-25T07:47:02;21.00;;;14.70;;
5638;SDS011;2841;44.526;11.360;2023-05-25T07:49:30;21.17;;;13.83;;
5638;SDS011;2841;44.526;11.360;2023-05-25T07:51:59;21.77;;;16.00;;
5638;SDS011;2841;44.526;11.360;2023-05-25T07:54:27;20.83;;;15.40;;
5638;SDS011;2841;44.526;11.360;2023-05-25T07:56:54;26.60;;;16.87;;
5638;SDS011;2841;44.526;11.360;2023-05-25T07:59:21;22.90;;;14.73;;
5638;SDS011;2841;44.526;11.360;2023-05-25T08:01:49;20.37;;;14.67;;
5638;SDS011;2841;44.526;11.360;2023-05-25T08:04:16;25.13;;;15.13;;
5638;SDS011;2841;44.526;11.360;2023-05-25T08:06:43;19.57;;;15.03;;
5638;SDS011;2841;44.526;11.360;2023-05-25T08:09:11;22.70;;;14.07;;
5638;SDS011;2841;44.526;11.360;2023-05-25T08:11:38;19.63;;;13.70;;
5638;SDS011;2841;44.526;11.360;2023-05-25T08:14:06;19.60;;;13.97;;
5638;SDS011;2841;44.526;11.360;2023-05-25T08:16:33;28.43;;;14.63;;
5638;SDS011;2841;44.526;11.360;2023-05-25T08:19:00;25.60;;;13.50;;
5638;SDS011;2841;44.526;11.360;2023-05-25T08:21:27;22.60;;;14.63;;
5638;SDS011;2841;44.526;11.360;2023-05-25T08:23:58;17.00;;;11.30;;
5638;SDS011;2841;44.526;11.360;2023-05-25T08:26:29;19.37;;;11.90;;
5638;SDS011;2841;44.526;11.360;2023-05-25T08:28:56;22.40;;;13.93;;
5638;SDS011;2841;44.526;11.360;2023-05-25T08:31:23;25.93;;;14.00;;
5638;SDS011;2841;44.526;11.360;2023-05-25T08:33:50;22.23;;;11.60;;
5638;SDS011;2841;44.526;11.360;2023-05-25T08:36:18;16.73;;;12.40;;
5638;SDS011;2841;44.526;11.360;2023-05-25T08:38:45;17.57;;;12.10;;
5638;SDS011;2841;44.526;11.360;2023-05-25T08:41:12;19.37;;;12.10;;
5638;SDS011;2841;44.526;11.360;2023-05-25T08:43:42;16.50;;;10.73;;
5638;SDS011;2841;44.526;11.360;2023-05-25T08:46:09;18.37;;;10.73;;
5638;SDS011;2841;44.526;11.360;2023-05-25T08:48:36;14.07;;;9.40;;
5638;SDS011;2841;44.526;11.360;2023-05-25T08:51:05;14.77;;;9.70;;
5638;SDS011;2841;44.526;11.360;2023-05-25T08:53:33;24.00;;;8.93;;
5638;SDS011;2841;44.526;11.360;2023-05-25T08:56:01;9.53;;;7.60;;
5638;SDS011;2841;44.526;11.360;2023-05-25T08:58:34;10.50;;;7.00;;
5638;SDS011;2841;44.526;11.360;2023-05-25T09:01:07;10.03;;;6.87;;
5638;SDS011;2841;44.526;11.360;2023-05-25T09:03:36;8.97;;;7.07;;
5638;SDS011;2841;44.526;11.360;2023-05-25T09:06:04;12.10;;;6.83;;
5638;SDS011;2841;44.526;11.360;2023-05-25T09:08:32;7.00;;;5.70;;
5638;SDS011;2841;44.526;11.360;2023-05-25T09:11:01;9.00;;;6.20;;
5638;SDS011;2841;44.526;11.360;2023-05-25T09:13:30;14.70;;;6.93;;
5638;SDS011;2841;44.526;11.360;2023-05-25T09:15:58;9.30;;;6.20;;
5638;SDS011;2841;44.526;11.360;2023-05-25T09:18:26;11.50;;;6.10;;
5638;SDS011;2841;44.526;11.360;2023-05-25T09:20:53;8.60;;;6.60;;
5638;SDS011;2841;44.526;11.360;2023-05-25T09:23:21;12.80;;;6.87;;
5638;SDS011;2841;44.526;11.360;2023-05-25T09:25:48;12.73;;;5.80;;
5638;SDS011;2841;44.526;11.360;2023-05-25T09:28:17;10.07;;;6.27;;
5638;SDS011;2841;44.526;11.360;2023-05-25T09:30:45;7.83;;;5.63;;
5638;SDS011;2841;44.526;11.360;2023-05-25T09:33:13;8.50;;;5.00;;
5638;SDS011;2841;44.526;11.360;2023-05-25T09:35:43;15.73;;;5.93;;
5638;SDS011;2841;44.526;11.360;2023-05-25T09:38:11;7.57;;;5.87;;
5638;SDS011;2841;44.526;11.360;2023-05-25T09:40:40;8.60;;;5.83;;
5638;SDS011;2841;44.526;11.360;2023-05-25T09:43:07;9.73;;;6.07;;
5638;SDS011;2841;44.526;11.360;2023-05-25T09:45:34;10.20;;;5.70;;
5638;SDS011;2841;44.526;11.360;2023-05-25T09:48:03;7.03;;;5.67;;
5638;SDS011;2841;44.526;11.360;2023-05-25T09:50:31;7.90;;;5.60;;
5638;SDS011;2841;44.526;11.360;2023-05-25T09:53:00;10.20;;;6.57;;
5638;SDS011;2841;44.526;11.360;2023-05-25T09:55:28;8.20;;;5.67;;
5638;SDS011;2841;44.526;11.360;2023-05-25T09:57:56;9.90;;;6.27;;
5638;SDS011;2841;44.526;11.360;2023-05-25T10:00:23;13.03;;;5.77;;
5638;SDS011;2841;44.526;11.360;2023-05-25T10:02:51;9.40;;;5.80;;
5638;SDS011;2841;44.526;11.360;2023-05-25T10:05:18;7.70;;;5.33;;
5638;SDS011;2841;44.526;11.360;2023-05-25T10:07:47;8.73;;;4.63;;
5638;SDS011;2841;44.526;11.360;2023-05-25T10:10:18;8.43;;;6.10;;
5638;SDS011;2841;44.526;11.360;2023-05-25T10:12:45;8.97;;;6.40;;
5638;SDS011;2841;44.526;11.360;2023-05-25T10:15:15;7.10;;;5.63;;
5638;SDS011;2841;44.526;11.360;2023-05-25T10:17:48;9.63;;;6.20;;
5638;SDS011;2841;44.526;11.360;2023-05-25T10:20:19;24.13;;;5.77;;
5638;SDS011;2841;44.526;11.360;2023-05-25T10:22:50;9.40;;;6.00;;
5638;SDS011;2841;44.526;11.360;2023-05-25T10:25:25;7.87;;;5.47;;
5638;SDS011;2841;44.526;11.360;2023-05-25T10:27:55;8.37;;;6.00;;
5638;SDS011;2841;44.526;11.360;2023-05-25T10:30:25;12.70;;;7.00;;
5638;SDS011;2841;44.526;11.360;2023-05-25T10:32:53;7.30;;;5.60;;
5638;SDS011;2841;44.526;11.360;2023-05-25T10:35:21;6.73;;;5.27;;
5638;SDS011;2841;44.526;11.360;2023-05-25T10:37:49;10.57;;;5.83;;
5638;SDS011;2841;44.526;11.360;2023-05-25T10:40:18;9.50;;;5.27;;
5638;SDS011;2841;44.526;11.360;2023-05-25T10:42:47;8.63;;;5.30;;
5638;SDS011;2841;44.526;11.360;2023-05-25T10:45:15;6.23;;;4.23;;
5638;SDS011;2841;44.526;11.360;2023-05-25T10:47:43;6.40;;;5.20;;
5638;SDS011;2841;44.526;11.360;2023-05-25T10:50:17;10.83;;;5.10;;
5638;SDS011;2841;44.526;11.360;2023-05-25T10:52:45;6.73;;;4.73;;
5638;SDS011;2841;44.526;11.360;2023-05-25T10:55:23;6.13;;;5.37;;
5638;SDS011;2841;44.526;11.360;2023-05-25T10:58:09;9.17;;;5.70;;
5638;SDS011;2841;44.526;11.360;2023-05-25T11:00:37;6.03;;;4.90;;
5638;SDS011;2841;44.526;11.360;2023-05-25T11:03:05;11.93;;;4.60;;
5638;SDS011;2841;44.526;11.360;2023-05-25T11:05:36;8.83;;;4.30;;
5638;SDS011;2841;44.526;11.360;2023-05-25T11:08:05;11.70;;;4.40;;
5638;SDS011;2841;44.526;11.360;2023-05-25T11:10:44;6.67;;;4.13;;
5638;SDS011;2841;44.526;11.360;2023-05-25T11:13:31;8.53;;;4.47;;
5638;SDS011;2841;44.526;11.360;2023-05-25T11:16:15;11.50;;;5.07;;
5638;SDS011;2841;44.526;11.360;2023-05-25T11:18:49;7.77;;;5.93;;
5638;SDS011;2841;44.526;11.360;2023-05-25T11:21:22;6.37;;;4.37;;
5638;SDS011;2841;44.526;11.360;2023-05-25T11:24:10;7.33;;;4.73;;
5638;SDS011;2841;44.526;11.360;2023-05-25T11:26:54;8.27;;;4.77;;
5638;SDS011;2841;44.526;11.360;2023-05-25T11:29:24;6.87;;;4.90;;
5638;SDS011;2841;44.526;11.360;2023-05-25T11:31:55;6.63;;;3.90;;
5638;SDS011;2841;44.526;11.360;2023-05-25T11:34:24;6.77;;;4.20;;
5638;SDS011;2841;44.526;11.360;2023-05-25T11:36:52;6.63;;;3.90;;
5638;SDS011;2841;44.526;11.360;2023-05-25T11:39:21;10.13;;;4.13;;
5638;SDS011;2841;44.526;11.360;2023-05-25T11:41:50;8.60;;;4.40;;
5638;SDS011;2841;44.526;11.360;2023-05-25T11:44:29;11.03;;;4.10;;
5638;SDS011;2841;44.526;11.360;2023-05-25T11:46:59;12.43;;;6.83;;
5638;SDS011;2841;44.526;11.360;2023-05-25T11:49:29;10.77;;;4.03;;
5638;SDS011;2841;44.526;11.360;2023-05-25T11:51:56;6.60;;;3.97;;
5638;SDS011;2841;44.526;11.360;2023-05-25T11:54:24;5.53;;;4.00;;
5638;SDS011;2841;44.526;11.360;2023-05-25T11:56:52;6.23;;;4.40;;
5638;SDS011;2841;44.526;11.360;2023-05-25T11:59:23;9.30;;;4.17;;
5638;SDS011;2841;44.526;11.360;2023-05-25T12:01:58;4.87;;;3.80;;
5638;SDS011;2841;44.526;11.360;2023-05-25T12:04:26;11.97;;;3.83;;
5638;SDS011;2841;44.526;11.360;2023-05-25T12:07:00;8.80;;;4.10;;
5638;SDS011;2841;44.526;11.360;2023-05-25T12:09:28;8.47;;;4.40;;
5638;SDS011;2841;44.526;11.360;2023-05-25T12:11:55;7.97;;;4.00;;
5638;SDS011;2841;44.526;11.360;2023-05-25T12:14:23;10.17;;;4.50;;
5638;SDS011;2841;44.526;11.360;2023-05-25T12:16:50;4.33;;;3.93;;
5638;SDS011;2841;44.526;11.360;2023-05-25T12:19:20;6.03;;;3.70;;
5638;SDS011;2841;44.526;11.360;2023-05-25T12:21:47;8.30;;;3.90;;
5638;SDS011;2841;44.526;11.360;2023-05-25T12:24:16;10.40;;;4.00;;
5638;SDS011;2841;44.526;11.360;2023-05-25T12:26:47;6.93;;;3.30;;
5638;SDS011;2841;44.526;11.360;2023-05-25T12:29:15;3.83;;;3.03;;
5638;SDS011;2841;44.526;11.360;2023-05-25T12:31:42;9.70;;;4.00;;
5638;SDS011;2841;44.526;11.360;2023-05-25T12:34:10;6.67;;;4.47;;
5638;SDS011;2841;44.526;11.360;2023-05-25T12:36:43;4.30;;;3.20;;
5638;SDS011;2841;44.526;11.360;2023-05-25T12:39:12;6.97;;;3.70;;
5638;SDS011;2841;44.526;11.360;2023-05-25T12:41:44;10.30;;;3.53;;
5638;SDS011;2841;44.526;11.360;2023-05-25T12:44:16;11.20;;;3.70;;
5638;SDS011;2841;44.526;11.360;2023-05-25T12:46:48;4.63;;;3.00;;
5638;SDS011;2841;44.526;11.360;2023-05-25T12:49:25;5.37;;;3.37;;
5638;SDS011;2841;44.526;11.360;2023-05-25T12:51:56;5.17;;;3.27;;
5638;SDS011;2841;44.526;11.360;2023-05-25T12:54:33;6.30;;;3.87;;
5638;SDS011;2841;44.526;11.360;2023-05-25T12:57:06;7.27;;;3.40;;
5638;SDS011;2841;44.526;11.360;2023-05-25T12:59:34;3.80;;;2.93;;
5638;SDS011;2841;44.526;11.360;2023-05-25T13:02:03;7.33;;;3.23;;
5638;SDS011;2841;44.526;11.360;2023-05-25T13:04:31;5.13;;;2.33;;
5638;SDS011;2841;44.526;11.360;2023-05-25T13:07:00;3.40;;;2.40;;
5638;SDS011;2841;44.526;11.360;2023-05-25T13:09:27;5.80;;;3.13;;
5638;SDS011;2841;44.526;11.360;2023-05-25T13:11:55;7.27;;;3.00;;
5638;SDS011;2841;44.526;11.360;2023-05-25T13:14:23;4.20;;;2.83;;
5638;SDS011;2841;44.526;11.360;2023-05-25T13:16:51;13.47;;;2.97;;
5638;SDS011;2841;44.526;11.360;2023-05-25T13:19:20;8.60;;;2.93;;
5638;SDS011;2841;44.526;11.360;2023-05-25T13:21:48;12.30;;;4.33;;
5638;SDS011;2841;44.526;11.360;2023-05-25T13:24:17;6.73;;;2.63;;
5638;SDS011;2841;44.526;11.360;2023-05-25T13:26:44;6.50;;;2.90;;
5638;SDS011;2841;44.526;11.360;2023-05-25T13:29:12;5.30;;;3.20;;
5638;SDS011;2841;44.526;11.360;2023-05-25T13:31:39;8.37;;;3.57;;
5638;SDS011;2841;44.526;11.360;2023-05-25T13:34:07;6.83;;;3.00;;
5638;SDS011;2841;44.526;11.360;2023-05-25T13:36:34;5.23;;;3.30;;
5638;SDS011;2841;44.526;11.360;2023-05-25T13:39:01;3.97;;;3.17;;
5638;SDS011;2841;44.526;11.360;2023-05-25T13:41:30;4.13;;;2.40;;
5638;SDS011;2841;44.526;11.360;2023-05-25T13:43:57;5.47;;;2.40;;
5638;SDS011;2841;44.526;11.360;2023-05-25T13:46:25;6.17;;;2.90;;
5638;SDS011;2841;44.526;11.360;2023-05-25T13:48:52;5.80;;;2.70;;
5638;SDS011;2841;44.526;11.360;2023-05-25T13:51:19;5.03;;;2.87;;
5638;SDS011;2841;44.526;11.360;2023-05-25T13:53:46;6.10;;;3.20;;
5638;SDS011;2841;44.526;11.360;2023-05-25T13:56:14;7.83;;;3.20;;
5638;SDS011;2841;44.526;11.360;2023-05-25T13:58:42;5.93;;;3.10;;
5638;SDS011;2841;44.526;11.360;2023-05-25T14:01:09;4.97;;;3.00;;
5638;SDS011;2841;44.526;11.360;2023-05-25T14:03:37;3.80;;;2.63;;
5638;SDS011;2841;44.526;11.360;2023-05-25T14:06:04;4.43;;;2.73;;
5638;SDS011;2841;44.526;11.360;2023-05-25T14:08:31;3.67;;;2.50;;
5638;SDS011;2841;44.526;11.360;2023-05-25T14:10:58;8.83;;;3.10;;
5638;SDS011;2841;44.526;11.360;2023-05-25T14:13:25;7.30;;;2.80;;
5638;SDS011;2841;44.526;11.360;2023-05-25T14:15:54;8.40;;;3.07;;
5638;SDS011;2841;44.526;11.360;2023-05-25T14:18:21;3.83;;;2.30;;
5638;SDS011;2841;44.526;11.360;2023-05-25T14:20:48;4.00;;;2.63;;
5638;SDS011;2841;44.526;11.360;2023-05-25T14:23:16;3.53;;;2.90;;
5638;SDS011;2841;44.526;11.360;2023-05-25T14:25:44;4.47;;;2.30;;
5638;SDS011;2841;44.526;11.360;2023-05-25T14:28:12;3.90;;;2.90;;
5638;SDS011;2841;44.526;11.360;2023-05-25T14:30:40;3.40;;;2.50;;
5638;SDS011;2841;44.526;11.360;2023-05-25T14:33:08;4.20;;;2.97;;
5638;SDS011;2841;44.526;11.360;2023-05-25T14:35:38;5.23;;;3.03;;
5638;SDS011;2841;44.526;11.360;2023-05-25T14:38:06;4.87;;;2.93;;
5638;SDS011;2841;44.526;11.360;2023-05-25T14:40:33;7.80;;;3.23;;
5638;SDS011;2841;44.526;11.360;2023-05-25T14:43:00;9.80;;;3.70;;
5638;SDS011;2841;44.526;11.360;2023-05-25T14:45:28;5.03;;;2.97;;
5638;SDS011;2841;44.526;11.360;2023-05-25T14:47:55;4.43;;;3.00;;
5638;SDS011;2841;44.526;11.360;2023-05-25T14:50:23;5.17;;;2.60;;